createdAt,value
2022-08-05T00:01:48.964Z,101182.66
2022-08-05T00:06:01.458Z,101168.72
2022-08-05T00:08:55.212Z,101177.66
2022-08-05T00:12:19.239Z,101172.91
2022-08-05T00:15:57.685Z,101174.59
2022-08-05T00:19:22.183Z,101167.00
2022-08-05T00:22:47.002Z,101169.66
2022-08-05T00:26:22.519Z,101165.63
2022-08-05T00:29:44.615Z,101176.56
2022-08-05T00:33:06.891Z,101163.16
2022-08-05T00:37:11.496Z,101164.84
2022-08-05T00:40:31.960Z,101175.78
2022-08-05T00:43:54.220Z,101174.56
2022-08-05T00:47:16.455Z,101171.75
2022-08-05T00:50:41.388Z,101172.06
2022-08-05T00:54:04.292Z,101173.16
2022-08-05T00:57:31.812Z,101175.06
2022-08-05T01:01:00.431Z,101171.06
2022-08-05T01:04:29.714Z,101162.59
2022-08-05T01:08:31.622Z,101159.94
2022-08-05T01:11:38.324Z,101161.63
2022-08-05T01:15:05.799Z,101146.53
2022-08-05T01:18:56.133Z,101150.63
2022-08-05T01:22:48.541Z,101151.81
2022-08-05T01:26:29.593Z,101162.06
2022-08-05T01:29:59.178Z,101160.50
2022-08-05T01:33:26.248Z,101147.06
2022-08-05T01:36:55.149Z,101154.16
2022-08-05T01:40:18.877Z,101149.94
2022-08-05T01:43:42.208Z,101157.88
2022-08-05T01:47:06.815Z,101156.28
2022-08-05T01:50:37.445Z,101155.59
2022-08-05T01:54:03.964Z,101139.59
2022-08-05T01:58:10.896Z,101142.13
2022-08-05T02:01:14.722Z,101163.09
2022-08-05T02:04:49.643Z,101153.78
2022-08-05T02:08:12.124Z,101149.00
2022-08-05T02:11:57.560Z,101148.16
2022-08-05T02:15:25.751Z,101144.16
2022-08-05T02:19:01.197Z,101148.19
2022-08-05T02:22:33.205Z,101142.25
2022-08-05T02:25:56.340Z,101144.41
2022-08-05T02:29:26.051Z,101137.72
2022-08-05T02:33:06.730Z,101143.25
2022-08-05T02:36:31.334Z,101115.06
2022-08-05T02:39:56.715Z,101136.69
2022-08-05T02:43:20.289Z,101129.06
2022-08-05T02:46:58.721Z,101125.66
2022-08-05T02:50:24.530Z,101127.47
2022-08-05T02:53:47.470Z,101125.44
2022-08-05T02:58:12.113Z,101125.44
2022-08-05T03:01:03.966Z,101121.31
2022-08-05T03:04:25.766Z,101131.59
2022-08-05T03:08:00.647Z,101123.53
2022-08-05T03:11:56.350Z,101122.50
2022-08-05T03:15:13.568Z,101134.53
2022-08-05T03:18:38.485Z,101128.09
2022-08-05T03:22:04.960Z,101133.56
2022-08-05T03:25:33.053Z,101130.31
2022-08-05T03:29:12.424Z,101135.19
2022-08-05T03:32:41.184Z,101138.44
2022-08-05T03:36:03.793Z,101139.72
2022-08-05T03:39:38.182Z,101132.94
2022-08-05T03:44:08.881Z,101124.84
2022-08-05T03:47:00.777Z,101124.03
2022-08-05T03:50:30.234Z,101123.22
2022-08-05T03:55:53.147Z,101125.47
2022-08-05T03:57:42.285Z,101125.94
2022-08-05T04:01:08.218Z,101132.03
2022-08-05T04:04:35.287Z,101110.97
2022-08-05T04:08:02.081Z,101104.47
2022-08-05T04:11:47.282Z,101117.69
2022-08-05T04:15:08.629Z,101106.72
2022-08-05T04:18:39.180Z,101120.44
2022-08-05T04:22:09.258Z,101111.69
2022-08-05T04:25:56.966Z,101107.88
2022-08-05T04:29:17.624Z,101118.84
2022-08-05T04:32:39.622Z,101117.94
2022-08-05T04:36:11.304Z,101111.94
2022-08-05T04:39:45.759Z,101118.72
2022-08-05T04:43:16.936Z,101130.69
2022-08-05T04:46:39.565Z,101129.00
2022-08-05T04:50:11.194Z,101116.75
2022-08-05T04:53:35.549Z,101130.34
2022-08-05T04:56:59.038Z,101128.94
2022-08-05T05:00:23.735Z,101130.16
2022-08-05T05:03:45.821Z,101135.19
2022-08-05T05:07:09.564Z,101135.41
2022-08-05T05:10:33.605Z,101138.50
2022-08-05T05:13:56.076Z,101132.88
2022-08-05T05:17:24.336Z,101148.44
2022-08-05T05:20:47.706Z,101134.03
2022-08-05T05:24:13.320Z,101147.91
2022-08-05T05:27:44.544Z,101142.94
2022-08-05T05:31:08.952Z,101150.53
2022-08-05T05:34:32.396Z,101142.13
2022-08-05T05:37:59.771Z,101143.44
2022-08-05T05:41:24.148Z,101146.19
2022-08-05T05:44:46.145Z,101149.94
2022-08-05T05:48:08.864Z,101148.06
2022-08-05T05:51:49.622Z,101150.88
2022-08-05T05:55:13.893Z,101147.50
2022-08-05T05:58:36.094Z,101142.41
2022-08-05T06:02:02.397Z,101155.47
2022-08-05T06:05:24.227Z,101155.69
2022-08-05T06:08:50.092Z,101150.94
2022-08-05T06:12:12.290Z,101162.19
2022-08-05T06:16:30.851Z,101141.31
2022-08-05T06:19:26.261Z,101142.56
2022-08-05T06:22:56.940Z,101140.22
2022-08-05T06:26:24.966Z,101147.28
2022-08-05T06:30:02.745Z,101147.47
2022-08-05T06:33:33.373Z,101145.50
2022-08-05T06:37:11.162Z,101151.88
2022-08-05T06:40:34.643Z,101142.53
2022-08-05T06:44:06.341Z,101131.88
2022-08-05T06:47:30.293Z,101135.59
2022-08-05T06:51:22.727Z,101141.63
2022-08-05T06:54:52.128Z,101147.00
2022-08-05T06:58:30.169Z,101139.63
2022-08-05T07:01:58.553Z,101119.81
2022-08-05T07:05:23.461Z,101143.19
2022-08-05T07:08:54.807Z,101135.25
2022-08-05T07:12:31.327Z,101137.13
2022-08-05T07:16:12.138Z,101125.72
2022-08-05T07:23:40.630Z,101124.72
2022-08-05T07:27:11.920Z,101119.50
2022-08-05T07:30:38.140Z,101124.94
2022-08-05T07:34:01.243Z,101117.88
2022-08-05T07:37:24.752Z,101118.34
2022-08-05T07:40:55.671Z,101115.34
2022-08-05T07:44:24.879Z,101115.00
2022-08-05T07:47:48.261Z,101116.47
2022-08-05T07:51:23.343Z,101119.47
2022-08-05T07:54:59.663Z,101121.97
2022-08-05T07:58:57.829Z,101120.47
2022-08-05T08:02:04.079Z,101108.25
2022-08-05T08:05:26.878Z,101108.41
2022-08-05T08:08:48.804Z,101104.34
2022-08-05T08:12:35.610Z,101118.47
2022-08-05T08:16:35.199Z,101107.19
2022-08-05T08:20:22.790Z,101110.22
2022-08-05T08:24:04.003Z,101088.41
2022-08-05T08:27:02.174Z,101104.00
2022-08-05T08:30:40.794Z,101112.44
2022-08-05T08:34:09.658Z,101113.59
2022-08-05T08:37:32.514Z,101113.38
2022-08-05T08:40:59.488Z,101099.09
2022-08-05T08:45:21.321Z,101108.66
2022-08-05T08:48:22.659Z,101106.91
2022-08-05T08:52:03.486Z,101112.06
2022-08-05T08:55:32.012Z,101103.69
2022-08-05T08:59:19.315Z,101100.25
2022-08-05T09:02:42.029Z,101079.44
2022-08-05T09:06:11.426Z,101079.72
2022-08-05T09:09:36.184Z,101085.38
2022-08-05T09:13:04.906Z,101072.47
2022-08-05T09:16:27.444Z,101093.13
2022-08-05T09:20:01.933Z,101091.13
2022-08-05T09:23:28.829Z,101090.41
2022-08-05T09:27:00.359Z,101095.09
2022-08-05T09:30:25.612Z,101076.78
2022-08-05T09:33:51.869Z,101083.63
2022-08-05T09:38:16.422Z,101076.53
2022-08-05T09:41:08.206Z,101078.22
2022-08-05T09:44:38.288Z,101075.91
2022-08-05T09:48:00.290Z,101068.31
2022-08-05T09:51:33.962Z,101066.81
2022-08-05T09:55:55.137Z,101052.75
2022-08-05T09:58:58.096Z,101053.72
2022-08-05T10:02:33.033Z,101059.69
2022-08-05T10:06:15.479Z,101048.09
2022-08-05T10:09:44.878Z,101035.66
2022-08-05T10:13:09.749Z,101033.78
2022-08-05T10:16:41.903Z,101038.69
2022-08-05T10:20:18.271Z,101042.22
2022-08-05T10:24:00.055Z,101047.03
2022-08-05T10:27:26.327Z,101040.84
2022-08-05T10:32:54.509Z,101016.34
2022-08-05T10:34:49.181Z,101030.66
2022-08-05T10:38:12.957Z,101010.47
2022-08-05T10:41:45.021Z,101017.44
2022-08-05T10:45:23.719Z,101032.22
2022-08-05T10:49:01.511Z,101017.44
2022-08-05T10:52:47.055Z,101019.94
2022-08-05T10:56:25.431Z,101004.66
2022-08-05T11:00:02.415Z,101012.94
2022-08-05T11:03:30.398Z,101006.50
2022-08-05T11:07:07.154Z,101018.97
2022-08-05T11:10:30.926Z,101015.94
2022-08-05T11:13:58.259Z,101013.69
2022-08-05T11:18:07.686Z,101004.66
2022-08-05T11:21:48.802Z,101010.53
2022-08-05T11:26:04.993Z,101006.09
2022-08-05T11:29:38.205Z,100988.25
2022-08-05T11:33:44.066Z,100992.00
2022-08-05T11:38:26.542Z,100996.94
2022-08-05T11:41:15.471Z,100994.25
2022-08-05T11:44:53.867Z,100982.69
2022-08-05T11:48:16.806Z,100996.09
2022-08-05T11:51:49.610Z,100996.47
2022-08-05T11:55:13.201Z,100982.69
2022-08-05T11:58:40.013Z,100988.56
2022-08-05T12:02:05.774Z,100978.31
2022-08-05T12:05:45.812Z,100976.25
2022-08-05T12:09:07.893Z,100967.00
2022-08-05T12:12:58.094Z,100972.31
2022-08-05T12:16:25.386Z,100971.50
2022-08-05T12:20:27.779Z,100951.97
2022-08-05T12:23:33.963Z,100937.81
2022-08-05T12:26:56.972Z,100958.44
2022-08-05T12:30:21.068Z,100954.63
2022-08-05T12:33:53.182Z,100950.63
2022-08-05T12:37:21.841Z,100948.97
2022-08-05T12:40:44.442Z,100945.72
2022-08-05T12:44:11.700Z,100952.00
2022-08-05T12:47:36.634Z,100950.69
2022-08-05T12:51:21.706Z,100934.69
2022-08-05T12:54:57.879Z,100939.06
2022-08-05T12:58:48.494Z,100922.59
2022-08-05T13:02:10.069Z,100918.88
2022-08-05T13:05:34.036Z,100929.22
2022-08-05T13:09:08.758Z,100928.69
2022-08-05T13:12:50.775Z,100923.09
2022-08-05T13:16:25.074Z,100913.97
2022-08-05T13:20:01.914Z,100919.47
2022-08-05T13:23:24.457Z,100913.50
2022-08-05T13:26:50.786Z,100925.50
2022-08-05T13:30:34.683Z,100924.28
2022-08-05T13:34:21.665Z,100914.63
2022-08-05T13:37:39.005Z,100906.25
2022-08-05T13:41:02.109Z,100906.16
2022-08-05T13:44:26.853Z,100905.59
2022-08-05T13:48:09.681Z,100895.16
2022-08-05T13:51:40.244Z,100895.66
2022-08-05T13:55:07.737Z,100895.44
2022-08-05T13:58:31.471Z,100889.97
2022-08-05T14:01:57.556Z,100886.09
2022-08-05T14:05:48.011Z,100884.22
2022-08-05T14:09:08.535Z,100886.47
2022-08-05T14:12:32.560Z,100886.63
2022-08-05T14:16:05.754Z,100874.00
2022-08-05T14:19:34.327Z,100881.53
2022-08-05T14:23:24.719Z,100860.44
2022-08-05T14:27:08.555Z,100869.72
2022-08-05T14:30:29.910Z,100872.34
2022-08-05T14:33:59.555Z,100870.22
2022-08-05T14:37:23.933Z,100858.72
2022-08-05T14:41:07.863Z,100855.59
2022-08-05T14:44:30.472Z,100865.31
2022-08-05T14:48:02.948Z,100862.97
2022-08-05T14:51:27.637Z,100860.75
2022-08-05T14:54:54.416Z,100853.41
2022-08-05T14:58:15.993Z,100846.06
2022-08-05T15:01:47.994Z,100850.78
2022-08-05T15:05:13.528Z,100847.31
2022-08-05T15:08:59.855Z,100833.41
2022-08-05T15:12:19.354Z,100842.97
2022-08-05T15:15:55.762Z,100842.50
2022-08-05T15:19:23.459Z,100841.41
2022-08-05T15:22:46.042Z,100840.75
2022-08-05T15:26:15.656Z,100844.09
2022-08-05T15:29:56.850Z,100821.06
2022-08-05T15:33:56.885Z,100838.22
2022-08-05T15:37:04.816Z,100833.19
2022-08-05T15:41:03.400Z,100830.03
2022-08-05T15:44:10.340Z,100836.47
2022-08-05T15:47:35.792Z,100819.84
2022-08-05T15:51:01.575Z,100821.06
2022-08-05T15:54:35.080Z,100807.13
2022-08-05T15:57:59.518Z,100820.41
2022-08-05T16:01:21.783Z,100806.09
2022-08-05T16:04:53.454Z,100812.09
2022-08-05T16:08:16.250Z,100801.72
2022-08-05T16:11:43.079Z,100807.97
2022-08-05T16:15:05.853Z,100801.69
2022-08-05T16:18:32.976Z,100801.72
2022-08-05T16:22:00.982Z,100797.13
2022-08-05T16:25:32.298Z,100784.09
2022-08-05T16:28:56.688Z,100767.72
2022-08-05T16:32:28.747Z,100799.31
2022-08-05T16:35:53.039Z,100797.22
2022-08-05T16:39:17.723Z,100781.94
2022-08-05T16:42:42.533Z,100800.31
2022-08-05T16:46:12.891Z,100798.53
2022-08-05T16:49:46.722Z,100802.59
2022-08-05T16:53:12.768Z,100792.53
2022-08-05T16:56:47.065Z,100785.13
2022-08-05T17:00:25.992Z,100789.19
2022-08-05T17:03:56.933Z,100782.09
2022-08-05T17:07:39.110Z,100785.03
2022-08-05T17:11:00.878Z,100782.03
2022-08-05T17:14:37.343Z,100779.75
2022-08-05T17:18:00.328Z,100775.84
2022-08-05T17:21:23.720Z,100787.47
2022-08-05T17:24:57.514Z,100768.78
2022-08-05T17:28:20.440Z,100778.03
2022-08-05T17:31:58.433Z,100765.63
2022-08-05T17:35:21.388Z,100772.22
2022-08-05T17:38:43.595Z,100769.25
2022-08-05T17:42:18.848Z,100767.63
2022-08-05T17:45:43.483Z,100764.28
2022-08-05T17:49:06.789Z,100767.16
2022-08-05T17:52:29.090Z,100761.22
2022-08-05T17:55:51.287Z,100768.59
2022-08-05T17:59:14.373Z,100761.78
2022-08-05T18:02:43.315Z,100757.59
2022-08-05T18:06:12.225Z,100753.97
2022-08-05T18:09:58.962Z,100764.34
2022-08-05T18:13:20.951Z,100755.66
2022-08-05T18:16:52.228Z,100753.19
2022-08-05T18:20:15.130Z,100753.13
2022-08-05T18:23:45.722Z,100757.47
2022-08-05T18:27:12.612Z,100754.81
2022-08-05T18:30:40.353Z,100750.34
2022-08-05T18:34:12.634Z,100756.34
2022-08-05T18:37:40.467Z,100755.09
2022-08-05T18:41:58.337Z,100740.13
2022-08-05T18:44:51.668Z,100751.41
2022-08-05T18:48:31.535Z,100734.84
2022-08-05T18:52:12.777Z,100744.59
2022-08-05T18:55:35.050Z,100750.81
2022-08-05T18:59:01.248Z,100750.31
2022-08-05T19:02:28.339Z,100748.16
2022-08-05T19:06:12.803Z,100750.13
2022-08-05T19:09:39.446Z,100743.28
2022-08-05T19:13:02.603Z,100729.00
2022-08-05T19:16:29.218Z,100738.75
2022-08-05T19:19:51.995Z,100743.56
2022-08-05T19:23:22.399Z,100731.84
2022-08-05T19:26:55.845Z,100722.13
2022-08-05T19:30:20.596Z,100718.44
2022-08-05T19:33:47.976Z,100719.06
2022-08-05T19:37:18.491Z,100715.34
2022-08-05T19:40:46.245Z,100721.50
2022-08-05T19:44:13.677Z,100717.97
2022-08-05T19:47:37.422Z,100713.78
2022-08-05T19:51:01.268Z,100718.94
2022-08-05T19:54:31.105Z,100709.69
2022-08-05T19:58:14.446Z,100713.03
2022-08-05T20:01:35.939Z,100714.19
2022-08-05T20:04:58.335Z,100711.00
2022-08-05T20:08:24.481Z,100705.66
2022-08-05T20:11:48.170Z,100706.16
2022-08-05T20:15:11.151Z,100712.47
2022-08-05T20:18:36.172Z,100709.28
2022-08-05T20:21:58.444Z,100695.72
2022-08-05T20:25:23.300Z,100690.81
2022-08-05T20:28:48.063Z,100700.03
2022-08-05T20:32:17.104Z,100694.75
2022-08-05T20:35:45.545Z,100689.72
2022-08-05T20:39:12.860Z,100696.41
2022-08-05T20:42:36.309Z,100692.38
2022-08-05T20:46:00.250Z,100690.16
2022-08-05T20:49:24.313Z,100689.13
2022-08-05T20:52:47.745Z,100678.69
2022-08-05T20:56:10.071Z,100685.69
2022-08-05T21:00:10.500Z,100685.03
2022-08-05T21:03:16.756Z,100664.94
2022-08-05T21:06:45.099Z,100672.75
2022-08-05T21:10:09.591Z,100678.28
2022-08-05T21:13:48.337Z,100683.94
2022-08-05T21:17:19.082Z,100673.69
2022-08-05T21:20:43.245Z,100673.47
2022-08-05T21:24:12.834Z,100672.25
2022-08-05T21:27:38.521Z,100669.19
2022-08-05T21:31:01.330Z,100661.78
2022-08-05T21:34:24.909Z,100666.31
2022-08-05T21:37:52.840Z,100662.94
2022-08-05T21:41:15.677Z,100653.19
2022-08-05T21:44:42.508Z,100657.38
2022-08-05T21:48:06.468Z,100658.69
2022-08-05T21:52:22.924Z,100650.59
2022-08-05T21:55:13.984Z,100649.63
2022-08-05T21:58:36.725Z,100652.81
2022-08-05T22:02:04.094Z,100649.31
2022-08-05T22:05:27.360Z,100651.28
2022-08-05T22:08:51.798Z,100642.91
2022-08-05T22:12:14.359Z,100636.72
2022-08-05T22:16:00.239Z,100641.38
2022-08-05T22:20:00.723Z,100631.47
2022-08-05T22:23:21.631Z,100634.44
2022-08-05T22:27:06.816Z,100636.13
2022-08-05T22:30:35.771Z,100632.09
2022-08-05T22:34:01.175Z,100627.06
2022-08-05T22:37:24.763Z,100613.50
2022-08-05T22:41:07.014Z,100618.84
2022-08-05T22:44:33.528Z,100622.16
2022-08-05T22:47:57.055Z,100618.66
2022-08-05T22:51:23.198Z,100613.50
2022-08-05T22:55:01.150Z,100609.44
2022-08-05T22:58:28.601Z,100595.16
2022-08-05T23:02:05.882Z,100615.78
2022-08-05T23:05:29.812Z,100605.25
2022-08-05T23:08:58.044Z,100597.81
2022-08-05T23:12:40.154Z,100597.28
2022-08-05T23:16:05.594Z,100595.09
2022-08-05T23:19:29.213Z,100600.78
2022-08-05T23:23:00.798Z,100593.38
2022-08-05T23:26:28.104Z,100595.22
2022-08-05T23:29:50.574Z,100592.56
2022-08-05T23:33:16.325Z,100564.13
2022-08-05T23:36:45.837Z,100581.50
2022-08-05T23:40:10.900Z,100579.13
2022-08-05T23:43:49.767Z,100582.09
2022-08-05T23:47:16.481Z,100578.91
2022-08-05T23:50:38.640Z,100574.88
2022-08-05T23:54:02.015Z,100568.41
2022-08-05T23:57:28.316Z,100550.25
